sensor_id;sensor_type;location;lat;lon;timestamp;P1;durP1;ratioP1;P2;durP2;ratioP2
16514;SDS011;8370;52.556;7.970;2022-09-24T00:01:12;13.13;;;10.37;;
16514;SDS011;8370;52.556;7.970;2022-09-24T00:03:40;12.03;;;9.67;;
16514;SDS011;8370;52.556;7.970;2022-09-24T00:06:09;12.80;;;11.17;;
16514;SDS011;8370;52.556;7.970;2022-09-24T00:08:38;15.90;;;11.23;;
16514;SDS011;8370;52.556;7.970;2022-09-24T00:11:05;14.43;;;11.07;;
16514;SDS011;8370;52.556;7.970;2022-09-24T00:13:31;13.77;;;11.30;;
16514;SDS011;8370;52.556;7.970;2022-09-24T00:16:17;17.13;;;11.00;;
16514;SDS011;8370;52.556;7.970;2022-09-24T00:18:43;15.27;;;11.83;;
16514;SDS011;8370;52.556;7.970;2022-09-24T00:21:31;15.57;;;10.93;;
16514;SDS011;8370;52.556;7.970;2022-09-24T00:23:57;14.77;;;11.03;;
16514;SDS011;8370;52.556;7.970;2022-09-24T00:26:24;17.27;;;10.07;;
16514;SDS011;8370;52.556;7.970;2022-09-24T00:29:09;13.67;;;10.60;;
16514;SDS011;8370;52.556;7.970;2022-09-24T00:31:36;14.17;;;10.90;;
16514;SDS011;8370;52.556;7.970;2022-09-24T00:34:02;12.90;;;10.83;;
16514;SDS011;8370;52.556;7.970;2022-09-24T00:36:28;13.60;;;9.83;;
16514;SDS011;8370;52.556;7.970;2022-09-24T00:38:55;13.03;;;10.17;;
16514;SDS011;8370;52.556;7.970;2022-09-24T00:41:23;13.83;;;9.67;;
16514;SDS011;8370;52.556;7.970;2022-09-24T00:43:51;14.37;;;10.50;;
16514;SDS011;8370;52.556;7.970;2022-09-24T00:46:31;14.60;;;11.87;;
16514;SDS011;8370;52.556;7.970;2022-09-24T00:49:13;13.13;;;11.20;;
16514;SDS011;8370;52.556;7.970;2022-09-24T00:51:41;14.30;;;10.93;;
16514;SDS011;8370;52.556;7.970;2022-09-24T00:54:11;17.27;;;11.50;;
16514;SDS011;8370;52.556;7.970;2022-09-24T00:56:40;12.43;;;10.37;;
16514;SDS011;8370;52.556;7.970;2022-09-24T00:59:08;14.93;;;10.70;;
16514;SDS011;8370;52.556;7.970;2022-09-24T01:01:35;14.57;;;11.47;;
16514;SDS011;8370;52.556;7.970;2022-09-24T01:04:01;13.87;;;10.67;;
16514;SDS011;8370;52.556;7.970;2022-09-24T01:06:28;13.97;;;10.13;;
16514;SDS011;8370;52.556;7.970;2022-09-24T01:08:54;15.47;;;11.30;;
16514;SDS011;8370;52.556;7.970;2022-09-24T01:11:29;13.17;;;9.80;;
16514;SDS011;8370;52.556;7.970;2022-09-24T01:20:02;13.70;;;11.03;;
16514;SDS011;8370;52.556;7.970;2022-09-24T01:31:43;17.00;;;12.30;;
16514;SDS011;8370;52.556;7.970;2022-09-24T01:34:13;17.97;;;12.37;;
16514;SDS011;8370;52.556;7.970;2022-09-24T01:36:44;14.53;;;10.13;;
16514;SDS011;8370;52.556;7.970;2022-09-24T01:39:11;16.47;;;12.60;;
16514;SDS011;8370;52.556;7.970;2022-09-24T01:41:38;23.87;;;13.10;;
16514;SDS011;8370;52.556;7.970;2022-09-24T01:44:07;14.43;;;11.70;;
16514;SDS011;8370;52.556;7.970;2022-09-24T01:46:36;14.83;;;10.77;;
16514;SDS011;8370;52.556;7.970;2022-09-24T01:49:03;14.30;;;11.50;;
16514;SDS011;8370;52.556;7.970;2022-09-24T01:51:36;16.60;;;12.57;;
16514;SDS011;8370;52.556;7.970;2022-09-24T01:54:11;19.47;;;13.17;;
16514;SDS011;8370;52.556;7.970;2022-09-24T01:57:03;16.13;;;12.10;;
16514;SDS011;8370;52.556;7.970;2022-09-24T02:05:21;17.00;;;12.27;;
16514;SDS011;8370;52.556;7.970;2022-09-24T02:07:54;14.27;;;11.00;;
16514;SDS011;8370;52.556;7.970;2022-09-24T02:10:28;18.43;;;11.60;;
16514;SDS011;8370;52.556;7.970;2022-09-24T02:12:57;17.87;;;12.93;;
16514;SDS011;8370;52.556;7.970;2022-09-24T02:15:30;13.97;;;11.33;;
16514;SDS011;8370;52.556;7.970;2022-09-24T02:17:57;16.50;;;12.20;;
16514;SDS011;8370;52.556;7.970;2022-09-24T02:20:30;16.37;;;10.80;;
16514;SDS011;8370;52.556;7.970;2022-09-24T02:22:59;14.00;;;11.33;;
16514;SDS011;8370;52.556;7.970;2022-09-24T02:25:36;14.83;;;11.90;;
16514;SDS011;8370;52.556;7.970;2022-09-24T02:28:08;15.93;;;12.57;;
16514;SDS011;8370;52.556;7.970;2022-09-24T02:30:39;15.83;;;11.93;;
16514;SDS011;8370;52.556;7.970;2022-09-24T02:33:09;17.20;;;12.57;;
16514;SDS011;8370;52.556;7.970;2022-09-24T02:35:57;18.40;;;13.87;;
16514;SDS011;8370;52.556;7.970;2022-09-24T02:38:22;13.73;;;11.37;;
16514;SDS011;8370;52.556;7.970;2022-09-24T02:40:48;14.90;;;11.70;;
16514;SDS011;8370;52.556;7.970;2022-09-24T02:43:14;17.03;;;13.40;;
16514;SDS011;8370;52.556;7.970;2022-09-24T02:45:40;18.30;;;13.93;;
16514;SDS011;8370;52.556;7.970;2022-09-24T02:48:05;19.57;;;14.07;;
16514;SDS011;8370;52.556;7.970;2022-09-24T02:50:31;19.97;;;14.00;;
16514;SDS011;8370;52.556;7.970;2022-09-24T02:52:56;17.17;;;11.20;;
16514;SDS011;8370;52.556;7.970;2022-09-24T02:55:22;16.93;;;13.07;;
16514;SDS011;8370;52.556;7.970;2022-09-24T02:57:48;20.77;;;13.80;;
16514;SDS011;8370;52.556;7.970;2022-09-24T03:00:13;21.83;;;15.43;;
16514;SDS011;8370;52.556;7.970;2022-09-24T03:02:39;21.37;;;14.00;;
16514;SDS011;8370;52.556;7.970;2022-09-24T03:05:05;17.57;;;13.77;;
16514;SDS011;8370;52.556;7.970;2022-09-24T03:07:31;19.50;;;14.60;;
16514;SDS011;8370;52.556;7.970;2022-09-24T03:09:56;20.33;;;13.93;;
16514;SDS011;8370;52.556;7.970;2022-09-24T03:12:23;18.17;;;13.97;;
16514;SDS011;8370;52.556;7.970;2022-09-24T03:14:49;20.47;;;14.30;;
16514;SDS011;8370;52.556;7.970;2022-09-24T03:17:15;24.07;;;14.50;;
16514;SDS011;8370;52.556;7.970;2022-09-24T03:19:40;23.10;;;15.53;;
16514;SDS011;8370;52.556;7.970;2022-09-24T03:22:06;19.80;;;13.67;;
16514;SDS011;8370;52.556;7.970;2022-09-24T03:24:31;20.03;;;14.73;;
16514;SDS011;8370;52.556;7.970;2022-09-24T03:26:57;16.57;;;13.27;;
16514;SDS011;8370;52.556;7.970;2022-09-24T03:29:22;22.47;;;15.23;;
16514;SDS011;8370;52.556;7.970;2022-09-24T03:32:07;20.43;;;12.93;;
16514;SDS011;8370;52.556;7.970;2022-09-24T03:34:33;18.90;;;14.53;;
16514;SDS011;8370;52.556;7.970;2022-09-24T03:36:58;19.77;;;14.90;;
16514;SDS011;8370;52.556;7.970;2022-09-24T03:39:24;22.57;;;14.87;;
16514;SDS011;8370;52.556;7.970;2022-09-24T03:41:49;21.23;;;15.03;;
16514;SDS011;8370;52.556;7.970;2022-09-24T03:44:15;22.43;;;15.07;;
16514;SDS011;8370;52.556;7.970;2022-09-24T03:46:40;20.67;;;15.03;;
16514;SDS011;8370;52.556;7.970;2022-09-24T03:49:06;23.37;;;15.60;;
16514;SDS011;8370;52.556;7.970;2022-09-24T03:51:31;24.70;;;16.40;;
16514;SDS011;8370;52.556;7.970;2022-09-24T03:53:57;22.73;;;15.00;;
16514;SDS011;8370;52.556;7.970;2022-09-24T03:56:22;23.43;;;15.47;;
16514;SDS011;8370;52.556;7.970;2022-09-24T03:58:48;24.93;;;17.30;;
16514;SDS011;8370;52.556;7.970;2022-09-24T04:01:14;24.23;;;16.37;;
16514;SDS011;8370;52.556;7.970;2022-09-24T04:03:44;21.93;;;14.83;;
16514;SDS011;8370;52.556;7.970;2022-09-24T04:06:09;28.77;;;18.30;;
16514;SDS011;8370;52.556;7.970;2022-09-24T04:08:35;23.50;;;16.27;;
16514;SDS011;8370;52.556;7.970;2022-09-24T04:11:00;22.70;;;16.00;;
16514;SDS011;8370;52.556;7.970;2022-09-24T04:13:26;25.63;;;16.53;;
16514;SDS011;8370;52.556;7.970;2022-09-24T04:15:51;25.07;;;17.30;;
16514;SDS011;8370;52.556;7.970;2022-09-24T04:18:17;26.17;;;17.37;;
16514;SDS011;8370;52.556;7.970;2022-09-24T04:20:43;27.80;;;17.07;;
16514;SDS011;8370;52.556;7.970;2022-09-24T04:23:09;24.17;;;17.03;;
16514;SDS011;8370;52.556;7.970;2022-09-24T04:25:35;28.83;;;18.17;;
16514;SDS011;8370;52.556;7.970;2022-09-24T04:28:02;27.27;;;17.87;;
16514;SDS011;8370;52.556;7.970;2022-09-24T04:30:30;29.97;;;21.57;;
16514;SDS011;8370;52.556;7.970;2022-09-24T04:32:57;28.77;;;17.80;;
16514;SDS011;8370;52.556;7.970;2022-09-24T04:35:25;28.70;;;20.57;;
16514;SDS011;8370;52.556;7.970;2022-09-24T04:37:53;32.07;;;22.27;;
16514;SDS011;8370;52.556;7.970;2022-09-24T04:40:19;32.43;;;21.90;;
16514;SDS011;8370;52.556;7.970;2022-09-24T04:42:45;29.77;;;20.90;;
16514;SDS011;8370;52.556;7.970;2022-09-24T04:45:11;27.93;;;21.73;;
16514;SDS011;8370;52.556;7.970;2022-09-24T04:47:38;32.73;;;21.93;;
16514;SDS011;8370;52.556;7.970;2022-09-24T04:50:05;33.33;;;22.40;;
16514;SDS011;8370;52.556;7.970;2022-09-24T04:52:32;33.33;;;22.47;;
16514;SDS011;8370;52.556;7.970;2022-09-24T04:54:58;30.93;;;21.97;;
16514;SDS011;8370;52.556;7.970;2022-09-24T04:57:25;30.07;;;22.00;;
16514;SDS011;8370;52.556;7.970;2022-09-24T04:59:51;28.80;;;21.70;;
16514;SDS011;8370;52.556;7.970;2022-09-24T05:02:17;31.73;;;23.53;;
16514;SDS011;8370;52.556;7.970;2022-09-24T05:04:44;32.40;;;22.70;;
16514;SDS011;8370;52.556;7.970;2022-09-24T05:07:09;32.50;;;22.47;;
16514;SDS011;8370;52.556;7.970;2022-09-24T05:09:35;36.33;;;24.23;;
16514;SDS011;8370;52.556;7.970;2022-09-24T05:12:02;33.63;;;22.87;;
16514;SDS011;8370;52.556;7.970;2022-09-24T05:14:28;34.90;;;24.20;;
16514;SDS011;8370;52.556;7.970;2022-09-24T05:16:54;35.10;;;24.00;;
16514;SDS011;8370;52.556;7.970;2022-09-24T05:19:19;39.00;;;24.67;;
16514;SDS011;8370;52.556;7.970;2022-09-24T05:21:45;31.80;;;22.10;;
16514;SDS011;8370;52.556;7.970;2022-09-24T05:24:11;36.40;;;25.63;;
16514;SDS011;8370;52.556;7.970;2022-09-24T05:26:37;39.47;;;25.67;;
16514;SDS011;8370;52.556;7.970;2022-09-24T05:29:21;32.27;;;21.93;;
16514;SDS011;8370;52.556;7.970;2022-09-24T05:31:47;37.83;;;25.13;;
16514;SDS011;8370;52.556;7.970;2022-09-24T05:34:12;36.67;;;24.40;;
16514;SDS011;8370;52.556;7.970;2022-09-24T05:36:38;38.07;;;25.30;;
16514;SDS011;8370;52.556;7.970;2022-09-24T05:39:04;36.03;;;25.27;;
16514;SDS011;8370;52.556;7.970;2022-09-24T05:41:30;35.03;;;23.17;;
16514;SDS011;8370;52.556;7.970;2022-09-24T05:43:55;35.47;;;23.60;;
16514;SDS011;8370;52.556;7.970;2022-09-24T05:46:23;36.17;;;24.60;;
16514;SDS011;8370;52.556;7.970;2022-09-24T05:48:48;39.03;;;25.43;;
16514;SDS011;8370;52.556;7.970;2022-09-24T05:51:14;36.37;;;25.20;;
16514;SDS011;8370;52.556;7.970;2022-09-24T05:53:39;35.13;;;23.33;;
16514;SDS011;8370;52.556;7.970;2022-09-24T05:56:05;37.37;;;24.87;;
16514;SDS011;8370;52.556;7.970;2022-09-24T05:58:31;33.33;;;23.63;;
16514;SDS011;8370;52.556;7.970;2022-09-24T06:00:57;36.27;;;24.20;;
16514;SDS011;8370;52.556;7.970;2022-09-24T06:03:23;36.27;;;23.97;;
16514;SDS011;8370;52.556;7.970;2022-09-24T06:05:49;38.27;;;25.47;;
16514;SDS011;8370;52.556;7.970;2022-09-24T06:08:16;33.00;;;22.50;;
16514;SDS011;8370;52.556;7.970;2022-09-24T06:10:43;35.53;;;25.67;;
16514;SDS011;8370;52.556;7.970;2022-09-24T06:13:10;36.87;;;24.03;;
16514;SDS011;8370;52.556;7.970;2022-09-24T06:15:38;38.93;;;26.27;;
16514;SDS011;8370;52.556;7.970;2022-09-24T06:18:05;38.47;;;26.17;;
16514;SDS011;8370;52.556;7.970;2022-09-24T06:20:31;40.47;;;25.23;;
16514;SDS011;8370;52.556;7.970;2022-09-24T06:22:56;37.37;;;23.67;;
16514;SDS011;8370;52.556;7.970;2022-09-24T06:25:23;38.60;;;25.63;;
16514;SDS011;8370;52.556;7.970;2022-09-24T06:27:53;40.27;;;26.73;;
16514;SDS011;8370;52.556;7.970;2022-09-24T06:30:24;39.43;;;25.83;;
16514;SDS011;8370;52.556;7.970;2022-09-24T06:33:03;42.20;;;26.60;;
16514;SDS011;8370;52.556;7.970;2022-09-24T06:35:32;38.93;;;26.53;;
16514;SDS011;8370;52.556;7.970;2022-09-24T06:37:58;42.87;;;26.93;;
16514;SDS011;8370;52.556;7.970;2022-09-24T06:40:24;41.80;;;27.10;;
16514;SDS011;8370;52.556;7.970;2022-09-24T06:42:50;37.73;;;25.03;;
16514;SDS011;8370;52.556;7.970;2022-09-24T06:45:17;39.20;;;25.93;;
16514;SDS011;8370;52.556;7.970;2022-09-24T06:47:43;38.87;;;26.17;;
16514;SDS011;8370;52.556;7.970;2022-09-24T06:50:09;41.43;;;26.73;;
16514;SDS011;8370;52.556;7.970;2022-09-24T06:52:35;42.43;;;25.80;;
16514;SDS011;8370;52.556;7.970;2022-09-24T06:55:00;42.33;;;25.63;;
16514;SDS011;8370;52.556;7.970;2022-09-24T06:57:26;39.20;;;24.57;;
16514;SDS011;8370;52.556;7.970;2022-09-24T06:59:51;37.87;;;23.40;;
16514;SDS011;8370;52.556;7.970;2022-09-24T07:02:17;36.37;;;23.03;;
16514;SDS011;8370;52.556;7.970;2022-09-24T07:04:42;40.97;;;21.93;;
16514;SDS011;8370;52.556;7.970;2022-09-24T07:07:08;34.60;;;21.37;;
16514;SDS011;8370;52.556;7.970;2022-09-24T07:09:52;35.47;;;22.33;;
16514;SDS011;8370;52.556;7.970;2022-09-24T07:12:17;32.97;;;22.37;;
16514;SDS011;8370;52.556;7.970;2022-09-24T07:14:43;33.53;;;21.37;;
16514;SDS011;8370;52.556;7.970;2022-09-24T07:17:08;37.63;;;22.33;;
16514;SDS011;8370;52.556;7.970;2022-09-24T07:19:34;33.37;;;21.10;;
16514;SDS011;8370;52.556;7.970;2022-09-24T07:21:59;29.43;;;20.03;;
16514;SDS011;8370;52.556;7.970;2022-09-24T07:24:25;34.90;;;20.30;;
16514;SDS011;8370;52.556;7.970;2022-09-24T07:26:50;30.50;;;19.70;;
16514;SDS011;8370;52.556;7.970;2022-09-24T07:29:16;30.57;;;19.00;;
16514;SDS011;8370;52.556;7.970;2022-09-24T07:31:42;29.03;;;18.07;;
16514;SDS011;8370;52.556;7.970;2022-09-24T07:34:07;28.33;;;18.37;;
16514;SDS011;8370;52.556;7.970;2022-09-24T07:36:33;30.80;;;18.70;;
16514;SDS011;8370;52.556;7.970;2022-09-24T07:38:58;31.23;;;18.90;;
16514;SDS011;8370;52.556;7.970;2022-09-24T07:41:25;28.80;;;19.53;;
16514;SDS011;8370;52.556;7.970;2022-09-24T07:43:50;30.27;;;18.83;;
16514;SDS011;8370;52.556;7.970;2022-09-24T07:46:17;29.10;;;18.80;;
16514;SDS011;8370;52.556;7.970;2022-09-24T07:48:43;27.73;;;18.57;;
16514;SDS011;8370;52.556;7.970;2022-09-24T07:51:09;31.53;;;18.70;;
16514;SDS011;8370;52.556;7.970;2022-09-24T07:53:35;27.70;;;18.00;;
16514;SDS011;8370;52.556;7.970;2022-09-24T07:56:01;30.87;;;17.17;;
16514;SDS011;8370;52.556;7.970;2022-09-24T07:58:26;29.33;;;19.27;;
16514;SDS011;8370;52.556;7.970;2022-09-24T08:00:52;27.40;;;18.33;;
16514;SDS011;8370;52.556;7.970;2022-09-24T08:03:20;31.40;;;19.97;;
16514;SDS011;8370;52.556;7.970;2022-09-24T08:05:46;27.13;;;18.57;;
16514;SDS011;8370;52.556;7.970;2022-09-24T08:08:11;29.37;;;18.13;;
16514;SDS011;8370;52.556;7.970;2022-09-24T08:10:38;24.63;;;16.73;;
16514;SDS011;8370;52.556;7.970;2022-09-24T08:13:04;28.57;;;19.50;;
16514;SDS011;8370;52.556;7.970;2022-09-24T08:15:29;29.33;;;18.27;;
16514;SDS011;8370;52.556;7.970;2022-09-24T08:17:59;28.10;;;17.53;;
16514;SDS011;8370;52.556;7.970;2022-09-24T08:20:27;26.83;;;17.73;;
16514;SDS011;8370;52.556;7.970;2022-09-24T08:22:53;28.83;;;18.33;;
16514;SDS011;8370;52.556;7.970;2022-09-24T08:25:18;29.07;;;18.00;;
16514;SDS011;8370;52.556;7.970;2022-09-24T08:27:44;31.10;;;18.53;;
16514;SDS011;8370;52.556;7.970;2022-09-24T08:30:10;31.37;;;18.30;;
16514;SDS011;8370;52.556;7.970;2022-09-24T08:32:36;28.67;;;18.30;;
16514;SDS011;8370;52.556;7.970;2022-09-24T08:35:01;35.63;;;20.77;;
16514;SDS011;8370;52.556;7.970;2022-09-24T08:37:27;29.50;;;19.10;;
16514;SDS011;8370;52.556;7.970;2022-09-24T08:39:53;30.43;;;19.37;;
16514;SDS011;8370;52.556;7.970;2022-09-24T08:45:13;28.23;;;18.50;;
16514;SDS011;8370;52.556;7.970;2022-09-24T08:48:00;30.87;;;19.83;;
16514;SDS011;8370;52.556;7.970;2022-09-24T08:50:32;25.67;;;17.87;;
16514;SDS011;8370;52.556;7.970;2022-09-24T08:55:45;28.83;;;17.77;;
16514;SDS011;8370;52.556;7.970;2022-09-24T09:00:54;24.63;;;16.27;;
16514;SDS011;8370;52.556;7.970;2022-09-24T09:05:59;24.97;;;16.97;;
16514;SDS011;8370;52.556;7.970;2022-09-24T09:08:31;26.93;;;17.13;;
16514;SDS011;8370;52.556;7.970;2022-09-24T09:11:05;23.80;;;16.53;;
16514;SDS011;8370;52.556;7.970;2022-09-24T09:13:35;23.93;;;15.63;;
16514;SDS011;8370;52.556;7.970;2022-09-24T09:16:19;24.97;;;16.00;;
16514;SDS011;8370;52.556;7.970;2022-09-24T09:18:49;27.13;;;16.13;;
16514;SDS011;8370;52.556;7.970;2022-09-24T09:21:22;27.07;;;16.47;;
16514;SDS011;8370;52.556;7.970;2022-09-24T09:23:51;28.57;;;18.00;;
16514;SDS011;8370;52.556;7.970;2022-09-24T09:26:20;25.33;;;16.17;;
16514;SDS011;8370;52.556;7.970;2022-09-24T09:28:46;25.87;;;16.53;;
16514;SDS011;8370;52.556;7.970;2022-09-24T09:34:12;24.63;;;16.23;;
16514;SDS011;8370;52.556;7.970;2022-09-24T09:39:29;28.53;;;17.97;;
16514;SDS011;8370;52.556;7.970;2022-09-24T09:42:14;28.67;;;17.73;;
16514;SDS011;8370;52.556;7.970;2022-09-24T09:44:44;28.63;;;18.67;;
16514;SDS011;8370;52.556;7.970;2022-09-24T09:47:18;27.63;;;18.37;;
16514;SDS011;8370;52.556;7.970;2022-09-24T09:50:17;29.63;;;17.77;;
16514;SDS011;8370;52.556;7.970;2022-09-24T09:52:45;25.17;;;16.20;;
16514;SDS011;8370;52.556;7.970;2022-09-24T09:55:27;33.60;;;19.17;;
16514;SDS011;8370;52.556;7.970;2022-09-24T10:00:40;27.87;;;17.67;;
16514;SDS011;8370;52.556;7.970;2022-09-24T10:03:18;29.00;;;18.07;;
16514;SDS011;8370;52.556;7.970;2022-09-24T10:05:53;32.20;;;18.40;;
16514;SDS011;8370;52.556;7.970;2022-09-24T10:08:24;27.43;;;17.33;;
16514;SDS011;8370;52.556;7.970;2022-09-24T10:10:54;24.60;;;16.53;;
16514;SDS011;8370;52.556;7.970;2022-09-24T10:13:21;29.43;;;18.03;;
16514;SDS011;8370;52.556;7.970;2022-09-24T10:15:51;30.67;;;18.73;;
16514;SDS011;8370;52.556;7.970;2022-09-24T10:18:29;28.73;;;19.07;;
16514;SDS011;8370;52.556;7.970;2022-09-24T10:20:58;28.60;;;18.97;;
16514;SDS011;8370;52.556;7.970;2022-09-24T10:23:31;26.93;;;17.50;;
16514;SDS011;8370;52.556;7.970;2022-09-24T10:26:05;28.40;;;18.87;;
16514;SDS011;8370;52.556;7.970;2022-09-24T10:28:32;25.73;;;18.07;;
16514;SDS011;8370;52.556;7.970;2022-09-24T10:31:22;27.90;;;19.03;;
16514;SDS011;8370;52.556;7.970;2022-09-24T10:33:49;26.90;;;18.37;;
16514;SDS011;8370;52.556;7.970;2022-09-24T10:36:19;29.07;;;19.97;;
16514;SDS011;8370;52.556;7.970;2022-09-24T10:38:46;26.60;;;18.23;;
16514;SDS011;8370;52.556;7.970;2022-09-24T10:41:26;30.00;;;19.20;;
16514;SDS011;8370;52.556;7.970;2022-09-24T10:43:53;30.80;;;19.60;;
16514;SDS011;8370;52.556;7.970;2022-09-24T10:52:32;27.03;;;18.63;;
16514;SDS011;8370;52.556;7.970;2022-09-24T10:55:24;25.97;;;17.63;;
16514;SDS011;8370;52.556;7.970;2022-09-24T10:58:13;25.97;;;16.73;;
16514;SDS011;8370;52.556;7.970;2022-09-24T11:01:08;29.10;;;19.50;;
16514;SDS011;8370;52.556;7.970;2022-09-24T11:03:52;29.27;;;19.50;;
16514;SDS011;8370;52.556;7.970;2022-09-24T11:09:28;26.50;;;18.03;;
16514;SDS011;8370;52.556;7.970;2022-09-24T11:12:09;28.13;;;18.77;;
16514;SDS011;8370;52.556;7.970;2022-09-24T11:20:28;24.77;;;17.13;;
16514;SDS011;8370;52.556;7.970;2022-09-24T11:23:06;25.77;;;18.43;;
16514;SDS011;8370;52.556;7.970;2022-09-24T11:28:48;22.63;;;16.20;;
16514;SDS011;8370;52.556;7.970;2022-09-24T11:31:30;28.50;;;18.20;;
16514;SDS011;8370;52.556;7.970;2022-09-24T11:36:28;27.13;;;18.73;;
16514;SDS011;8370;52.556;7.970;2022-09-24T11:39:11;24.97;;;17.33;;
16514;SDS011;8370;52.556;7.970;2022-09-24T11:42:20;27.70;;;20.07;;
16514;SDS011;8370;52.556;7.970;2022-09-24T11:47:31;29.27;;;19.30;;
16514;SDS011;8370;52.556;7.970;2022-09-24T11:50:39;28.43;;;17.93;;
16514;SDS011;8370;52.556;7.970;2022-09-24T11:53:40;26.23;;;16.97;;
16514;SDS011;8370;52.556;7.970;2022-09-24T11:56:15;23.77;;;16.23;;
16514;SDS011;8370;52.556;7.970;2022-09-24T11:58:50;21.97;;;14.83;;
16514;SDS011;8370;52.556;7.970;2022-09-24T12:01:30;26.63;;;14.97;;
16514;SDS011;8370;52.556;7.970;2022-09-24T12:04:13;23.43;;;14.87;;
16514;SDS011;8370;52.556;7.970;2022-09-24T12:06:49;26.90;;;16.30;;
16514;SDS011;8370;52.556;7.970;2022-09-24T12:09:22;24.70;;;16.33;;
16514;SDS011;8370;52.556;7.970;2022-09-24T12:11:58;21.43;;;13.73;;
16514;SDS011;8370;52.556;7.970;2022-09-24T12:14:43;22.50;;;13.93;;
16514;SDS011;8370;52.556;7.970;2022-09-24T12:17:27;23.63;;;14.50;;
16514;SDS011;8370;52.556;7.970;2022-09-24T12:20:03;21.97;;;13.40;;
16514;SDS011;8370;52.556;7.970;2022-09-24T12:22:38;20.73;;;12.93;;
16514;SDS011;8370;52.556;7.970;2022-09-24T12:25:09;22.43;;;15.03;;
16514;SDS011;8370;52.556;7.970;2022-09-24T12:27:36;20.27;;;12.80;;
16514;SDS011;8370;52.556;7.970;2022-09-24T12:33:34;20.33;;;13.33;;
16514;SDS011;8370;52.556;7.970;2022-09-24T12:38:54;18.83;;;12.33;;
16514;SDS011;8370;52.556;7.970;2022-09-24T12:41:26;18.03;;;12.43;;
16514;SDS011;8370;52.556;7.970;2022-09-24T12:43:53;19.77;;;12.87;;
16514;SDS011;8370;52.556;7.970;2022-09-24T12:46:40;21.30;;;12.47;;
16514;SDS011;8370;52.556;7.970;2022-09-24T12:49:27;17.73;;;12.47;;
16514;SDS011;8370;52.556;7.970;2022-09-24T12:52:00;17.53;;;12.47;;
16514;SDS011;8370;52.556;7.970;2022-09-24T12:54:29;16.23;;;11.67;;
16514;SDS011;8370;52.556;7.970;2022-09-24T12:57:07;18.13;;;11.27;;
16514;SDS011;8370;52.556;7.970;2022-09-24T12:59:54;20.30;;;12.33;;
16514;SDS011;8370;52.556;7.970;2022-09-24T13:02:23;18.33;;;12.00;;
16514;SDS011;8370;52.556;7.970;2022-09-24T13:07:54;19.27;;;12.33;;
16514;SDS011;8370;52.556;7.970;2022-09-24T13:10:35;19.77;;;13.07;;
16514;SDS011;8370;52.556;7.970;2022-09-24T13:13:01;18.60;;;11.93;;
16514;SDS011;8370;52.556;7.970;2022-09-24T13:15:44;21.73;;;11.93;;
16514;SDS011;8370;52.556;7.970;2022-09-24T13:18:22;16.70;;;11.40;;
16514;SDS011;8370;52.556;7.970;2022-09-24T13:26:05;16.67;;;11.73;;
16514;SDS011;8370;52.556;7.970;2022-09-24T13:31:17;16.20;;;10.57;;
16514;SDS011;8370;52.556;7.970;2022-09-24T13:39:28;16.27;;;10.80;;
16514;SDS011;8370;52.556;7.970;2022-09-24T13:44:37;16.87;;;10.63;;
16514;SDS011;8370;52.556;7.970;2022-09-24T13:47:11;16.63;;;11.13;;
16514;SDS011;8370;52.556;7.970;2022-09-24T13:50:08;14.00;;;10.17;;
16514;SDS011;8370;52.556;7.970;2022-09-24T13:52:41;16.67;;;12.20;;
16514;SDS011;8370;52.556;7.970;2022-09-24T13:55:15;21.70;;;13.87;;
16514;SDS011;8370;52.556;7.970;2022-09-24T13:57:54;13.43;;;10.67;;
16514;SDS011;8370;52.556;7.970;2022-09-24T14:00:21;17.27;;;11.23;;
16514;SDS011;8370;52.556;7.970;2022-09-24T14:02:51;14.20;;;9.57;;
16514;SDS011;8370;52.556;7.970;2022-09-24T14:05:23;11.70;;;9.17;;
16514;SDS011;8370;52.556;7.970;2022-09-24T14:07:51;13.47;;;9.37;;
16514;SDS011;8370;52.556;7.970;2022-09-24T14:10:23;14.30;;;9.17;;
16514;SDS011;8370;52.556;7.970;2022-09-24T14:16:11;16.40;;;9.73;;
16514;SDS011;8370;52.556;7.970;2022-09-24T14:18:34;13.67;;;9.50;;
16514;SDS011;8370;52.556;7.970;2022-09-24T14:21:11;10.90;;;7.93;;
16514;SDS011;8370;52.556;7.970;2022-09-24T14:26:52;10.93;;;7.70;;
16514;SDS011;8370;52.556;7.970;2022-09-24T14:29:25;10.13;;;7.20;;
16514;SDS011;8370;52.556;7.970;2022-09-24T14:31:54;14.57;;;9.67;;
16514;SDS011;8370;52.556;7.970;2022-09-24T14:34:29;11.73;;;7.33;;
16514;SDS011;8370;52.556;7.970;2022-09-24T14:37:09;8.33;;;6.60;;
16514;SDS011;8370;52.556;7.970;2022-09-24T14:39:42;8.90;;;6.47;;
16514;SDS011;8370;52.556;7.970;2022-09-24T14:42:11;9.23;;;6.90;;
16514;SDS011;8370;52.556;7.970;2022-09-24T14:44:46;8.63;;;6.57;;
16514;SDS011;8370;52.556;7.970;2022-09-24T14:47:23;10.67;;;7.10;;
16514;SDS011;8370;52.556;7.970;2022-09-24T14:49:53;10.47;;;7.23;;
16514;SDS011;8370;52.556;7.970;2022-09-24T14:52:26;8.97;;;6.37;;
16514;SDS011;8370;52.556;7.970;2022-09-24T14:55:11;9.97;;;6.67;;
16514;SDS011;8370;52.556;7.970;2022-09-24T14:57:42;10.13;;;6.53;;
16514;SDS011;8370;52.556;7.970;2022-09-24T15:00:22;8.60;;;6.80;;
16514;SDS011;8370;52.556;7.970;2022-09-24T15:02:50;9.83;;;6.83;;
16514;SDS011;8370;52.556;7.970;2022-09-24T15:05:25;9.33;;;6.33;;
16514;SDS011;8370;52.556;7.970;2022-09-24T15:07:53;9.37;;;6.60;;
16514;SDS011;8370;52.556;7.970;2022-09-24T15:10:39;8.00;;;6.10;;
16514;SDS011;8370;52.556;7.970;2022-09-24T15:13:11;12.80;;;8.37;;
16514;SDS011;8370;52.556;7.970;2022-09-24T15:15:39;14.33;;;9.23;;
16514;SDS011;8370;52.556;7.970;2022-09-24T15:18:08;13.47;;;10.10;;
16514;SDS011;8370;52.556;7.970;2022-09-24T15:20:34;11.43;;;7.23;;
16514;SDS011;8370;52.556;7.970;2022-09-24T15:23:01;13.00;;;7.40;;
16514;SDS011;8370;52.556;7.970;2022-09-24T15:25:27;10.43;;;7.87;;
16514;SDS011;8370;52.556;7.970;2022-09-24T15:27:53;9.97;;;7.30;;
16514;SDS011;8370;52.556;7.970;2022-09-24T15:30:19;9.90;;;7.13;;
16514;SDS011;8370;52.556;7.970;2022-09-24T15:32:45;14.00;;;8.17;;
16514;SDS011;8370;52.556;7.970;2022-09-24T15:35:14;11.20;;;7.67;;
16514;SDS011;8370;52.556;7.970;2022-09-24T15:37:40;9.60;;;7.67;;
16514;SDS011;8370;52.556;7.970;2022-09-24T15:42:39;12.33;;;8.33;;
16514;SDS011;8370;52.556;7.970;2022-09-24T15:45:08;13.27;;;8.93;;
16514;SDS011;8370;52.556;7.970;2022-09-24T15:47:41;12.87;;;8.60;;
16514;SDS011;8370;52.556;7.970;2022-09-24T15:50:07;12.93;;;9.67;;
16514;SDS011;8370;52.556;7.970;2022-09-24T15:52:41;16.23;;;10.23;;
16514;SDS011;8370;52.556;7.970;2022-09-24T15:55:17;13.60;;;9.30;;
16514;SDS011;8370;52.556;7.970;2022-09-24T15:57:44;11.87;;;8.87;;
16514;SDS011;8370;52.556;7.970;2022-09-24T16:00:14;19.53;;;10.50;;
16514;SDS011;8370;52.556;7.970;2022-09-24T16:02:45;12.47;;;8.90;;
16514;SDS011;8370;52.556;7.970;2022-09-24T16:05:14;13.13;;;8.83;;
16514;SDS011;8370;52.556;7.970;2022-09-24T16:07:40;10.73;;;8.77;;
16514;SDS011;8370;52.556;7.970;2022-09-24T16:10:06;15.20;;;9.43;;
16514;SDS011;8370;52.556;7.970;2022-09-24T16:12:32;15.17;;;9.73;;
16514;SDS011;8370;52.556;7.970;2022-09-24T16:14:57;14.97;;;10.43;;
16514;SDS011;8370;52.556;7.970;2022-09-24T16:17:24;12.77;;;10.03;;
16514;SDS011;8370;52.556;7.970;2022-09-24T16:19:51;13.67;;;9.60;;
16514;SDS011;8370;52.556;7.970;2022-09-24T16:22:17;14.47;;;10.00;;
16514;SDS011;8370;52.556;7.970;2022-09-24T16:24:42;13.37;;;9.33;;
16514;SDS011;8370;52.556;7.970;2022-09-24T16:27:08;22.43;;;13.43;;
16514;SDS011;8370;52.556;7.970;2022-09-24T16:29:33;22.27;;;15.07;;
16514;SDS011;8370;52.556;7.970;2022-09-24T16:31:59;12.67;;;8.27;;